Time;durP1;ratioP1;P1;durP2;ratioP2;P2;SDS_P1;SDS_P2;PMS_P1;PMS_P2;Temp;Humidity;BMP_temperature;BMP_pressure;BME280_temperature;BME280_humidity;BME280_pressure;Samples;Min_cycle;Max_cycle;Signal;HPM_P1;HPM_P2
2023/03/06 00:01:17;;;;;;;8.38;1.75;;;2.00;99.90;;;;;;5051127;28;20077;-89
2023/03/06 00:03:42;;;;;;;6.70;2.08;;;2.10;99.90;;;;;;5051484;28;20036;-91
2023/03/06 00:06:08;;;;;;;6.20;1.60;;;2.00;99.90;;;;;;5055764;28;20055;-91
2023/03/06 00:08:34;;;;;;;4.63;1.50;;;2.00;99.90;;;;;;5051075;28;20053;-90
2023/03/06 00:10:59;;;;;;;6.57;1.58;;;2.00;99.90;;;;;;5050535;28;20136;-88
2023/03/06 00:13:29;;;;;;;4.50;1.60;;;2.00;99.90;;;;;;5047507;28;20045;-90
2023/03/06 00:15:59;;;;;;;6.90;1.40;;;1.90;99.90;;;;;;5067843;28;20052;-93
2023/03/06 00:18:25;;;;;;;4.72;1.45;;;2.00;99.90;;;;;;5050672;28;20041;-89
2023/03/06 00:20:51;;;;;;;2.58;1.25;;;2.00;99.90;;;;;;5061247;28;20057;-91
2023/03/06 00:23:17;;;;;;;5.05;1.52;;;2.00;99.90;;;;;;5069443;28;20047;-87
2023/03/06 00:25:44;;;;;;;5.13;1.95;;;2.00;99.90;;;;;;5050351;28;20052;-91
2023/03/06 00:28:11;;;;;;;6.47;2.40;;;2.00;99.90;;;;;;5053441;28;20049;-88
2023/03/06 00:30:37;;;;;;;4.30;1.38;;;1.90;99.90;;;;;;5066691;28;20045;-91
2023/03/06 00:33:03;;;;;;;8.13;1.92;;;2.00;1.00;;;;;;5050057;28;20064;-90
2023/03/06 00:35:28;;;;;;;3.00;1.70;;;2.00;1.00;;;;;;5066709;28;20139;-90
2023/03/06 00:37:54;;;;;;;4.15;1.60;;;2.00;1.00;;;;;;5055138;28;20124;-89
2023/03/06 00:40:20;;;;;;;6.82;1.55;;;2.10;1.00;;;;;;5059720;28;20041;-85
2023/03/06 00:42:47;;;;;;;4.35;1.60;;;2.00;1.00;;;;;;5047086;28;20060;-86
2023/03/06 00:45:12;;;;;;;4.78;1.63;;;2.10;1.00;;;;;;5043985;28;20043;-89
2023/03/06 00:47:39;;;;;;;5.65;1.52;;;2.00;1.00;;;;;;5040266;28;20160;-89
2023/03/06 00:50:05;;;;;;;5.35;1.92;;;2.10;99.90;;;;;;5061810;28;20066;-90
2023/03/06 00:52:30;;;;;;;4.07;1.90;;;2.10;99.90;;;;;;5055799;28;20094;-90
2023/03/06 00:54:56;;;;;;;5.10;1.73;;;2.10;99.90;;;;;;5059062;28;20037;-90
2023/03/06 00:57:22;;;;;;;9.40;1.73;;;2.10;99.90;;;;;;5048824;28;20486;-88
2023/03/06 00:59:47;;;;;;;7.78;1.70;;;2.10;99.90;;;;;;5055363;28;20123;-89
2023/03/06 01:02:13;;;;;;;4.13;1.70;;;2.10;99.90;;;;;;5041090;28;20047;-89
2023/03/06 01:04:39;;;;;;;9.55;2.10;;;2.10;99.90;;;;;;5018322;28;20041;-87
2023/03/06 01:07:05;;;;;;;5.80;2.13;;;2.20;99.90;;;;;;5034468;28;20053;-90
2023/03/06 01:09:30;;;;;;;7.95;2.85;;;2.20;99.90;;;;;;5046183;28;20135;-89
2023/03/06 01:11:56;;;;;;;4.03;1.60;;;2.20;99.90;;;;;;5059494;28;20041;-90
2023/03/06 01:14:23;;;;;;;8.30;2.15;;;2.30;99.90;;;;;;5046518;28;20060;-88
2023/03/06 01:16:49;;;;;;;5.32;1.83;;;2.30;99.90;;;;;;5052063;28;20049;-89
2023/03/06 01:19:15;;;;;;;4.68;1.80;;;2.30;99.90;;;;;;5039208;28;20041;-90
2023/03/06 01:21:40;;;;;;;3.42;1.75;;;2.30;99.90;;;;;;5049475;28;20044;-88
2023/03/06 01:24:07;;;;;;;4.68;1.80;;;2.30;99.90;;;;;;5058255;28;20051;-87
2023/03/06 01:26:33;;;;;;;5.95;2.45;;;2.20;99.90;;;;;;5043794;28;20355;-91
2023/03/06 01:28:59;;;;;;;6.10;2.67;;;2.20;99.90;;;;;;5049751;28;20104;-89
2023/03/06 01:31:25;;;;;;;7.00;3.08;;;2.30;1.00;;;;;;5061344;28;20584;-89
2023/03/06 01:33:51;;;;;;;8.27;2.45;;;2.20;1.00;;;;;;5064339;28;20064;-89
2023/03/06 01:36:17;;;;;;;7.15;2.05;;;2.20;1.00;;;;;;5065809;28;20082;-88
2023/03/06 01:38:43;;;;;;;5.95;2.42;;;2.20;1.00;;;;;;5061221;28;20084;-87
2023/03/06 01:41:09;;;;;;;4.85;1.92;;;2.20;1.00;;;;;;5076379;28;20045;-86
2023/03/06 01:43:41;;;;;;;5.38;1.65;;;2.20;1.00;;;;;;5073553;28;20076;-86
2023/03/06 01:46:32;;;;;;;5.00;1.60;;;2.20;1.00;;;;;;5020758;28;20049;-86
2023/03/06 01:49:13;;;;;;;5.35;1.75;;;2.20;1.00;;;;;;5061832;28;20128;-87
2023/03/06 01:51:50;;;;;;;6.68;1.75;;;2.30;1.00;;;;;;5062662;28;20058;-85
2023/03/06 01:54:44;;;;;;;6.93;1.60;;;2.20;1.00;;;;;;5063204;28;20041;-86
2023/03/06 01:57:18;;;;;;;9.15;2.00;;;2.20;1.00;;;;;;5071192;28;20049;-86
2023/03/06 01:59:46;;;;;;;5.57;1.98;;;2.30;1.00;;;;;;5069643;28;20098;-85
2023/03/06 02:02:14;;;;;;;6.18;1.70;;;2.20;1.00;;;;;;5060411;28;20101;-85
2023/03/06 02:04:41;;;;;;;5.88;1.65;;;2.20;1.00;;;;;;5039111;28;20044;-85
2023/03/06 02:07:08;;;;;;;5.45;1.90;;;2.20;1.00;;;;;;5064590;28;20060;-84
2023/03/06 02:09:35;;;;;;;6.57;1.77;;;2.20;1.00;;;;;;5064768;28;20033;-86
2023/03/06 02:12:05;;;;;;;6.07;1.83;;;2.30;1.00;;;;;;5072976;28;20040;-84
2023/03/06 02:14:31;;;;;;;4.72;1.90;;;2.20;1.00;;;;;;5052612;28;20135;-84
2023/03/06 02:16:56;;;;;;;7.78;1.65;;;2.30;1.00;;;;;;5053799;28;20687;-84
2023/03/06 02:19:54;;;;;;;7.68;1.98;;;2.20;1.00;;;;;;5040833;28;20052;-84
2023/03/06 02:22:21;;;;;;;8.02;2.03;;;2.20;1.00;;;;;;5076716;28;20044;-84
2023/03/06 02:24:52;;;;;;;5.50;2.25;;;2.20;1.00;;;;;;5062137;28;20036;-84
2023/03/06 02:27:18;;;;;;;6.68;1.90;;;2.20;1.00;;;;;;5046151;28;20044;-84
2023/03/06 02:29:45;;;;;;;5.00;2.03;;;2.20;1.00;;;;;;5051316;28;20052;-85
2023/03/06 02:32:10;;;;;;;8.05;2.60;;;2.20;1.00;;;;;;5071631;28;20045;-85
2023/03/06 02:34:36;;;;;;;5.43;2.17;;;2.20;1.00;;;;;;5042382;28;20056;-85
2023/03/06 02:37:07;;;;;;;4.10;2.17;;;2.20;1.00;;;;;;5066773;28;20170;-84
2023/03/06 02:39:45;;;;;;;9.50;2.60;;;2.20;1.00;;;;;;5055419;28;20041;-84
2023/03/06 02:42:21;;;;;;;3.30;1.80;;;2.20;1.00;;;;;;5065469;28;20053;-84
2023/03/06 02:44:47;;;;;;;7.10;2.35;;;2.20;1.00;;;;;;5046480;28;20167;-84
2023/03/06 02:47:13;;;;;;;5.20;2.08;;;2.20;1.00;;;;;;5050750;28;20782;-85
2023/03/06 02:49:38;;;;;;;6.13;2.25;;;2.20;1.00;;;;;;5054761;28;20035;-85
2023/03/06 02:52:05;;;;;;;10.18;2.58;;;2.30;1.00;;;;;;5035395;28;20102;-84
2023/03/06 02:54:31;;;;;;;12.48;3.00;;;2.30;1.00;;;;;;5064755;28;20402;-84
2023/03/06 02:56:57;;;;;;;6.72;2.47;;;2.30;1.00;;;;;;5043227;28;20033;-84
2023/03/06 02:59:22;;;;;;;6.38;2.30;;;2.30;1.00;;;;;;5062847;28;20596;-84
2023/03/06 03:01:48;;;;;;;8.50;2.50;;;2.30;1.00;;;;;;5033300;28;20048;-83
2023/03/06 03:04:14;;;;;;;8.63;2.70;;;2.30;1.00;;;;;;5042919;28;20071;-83
2023/03/06 03:06:39;;;;;;;7.57;2.67;;;2.30;1.00;;;;;;5040837;28;20052;-83
2023/03/06 03:09:06;;;;;;;11.82;3.08;;;2.30;1.00;;;;;;5040270;28;20199;-83
2023/03/06 03:11:32;;;;;;;9.07;2.90;;;2.40;1.00;;;;;;5042005;28;20048;-83
2023/03/06 03:13:57;;;;;;;6.45;2.78;;;2.40;1.00;;;;;;5065196;28;20548;-83
2023/03/06 03:16:23;;;;;;;6.85;2.45;;;2.30;1.00;;;;;;5065898;28;20056;-83
2023/03/06 03:18:50;;;;;;;5.80;2.55;;;2.30;1.00;;;;;;5074158;28;20052;-82
2023/03/06 03:21:16;;;;;;;6.10;2.78;;;2.10;1.00;;;;;;5068944;28;20123;-85
2023/03/06 03:23:42;;;;;;;5.90;2.25;;;2.10;1.00;;;;;;5041575;28;20116;-84
2023/03/06 03:26:10;;;;;;;8.80;2.17;;;2.00;1.00;;;;;;5050330;28;20113;-84
2023/03/06 03:28:36;;;;;;;5.40;2.20;;;1.90;1.00;;;;;;5050399;28;20402;-84
2023/03/06 03:31:09;;;;;;;4.65;1.90;;;1.90;1.00;;;;;;5053348;28;20047;-85
2023/03/06 03:33:37;;;;;;;2.53;1.70;;;1.80;1.00;;;;;;5058161;28;20868;-85
2023/03/06 03:36:04;;;;;;;2.75;1.90;;;1.60;1.00;;;;;;5043499;28;20052;-85
2023/03/06 03:38:31;;;;;;;3.45;1.83;;;1.50;1.00;;;;;;5062017;28;20136;-84
2023/03/06 03:40:57;;;;;;;3.42;1.73;;;1.50;1.00;;;;;;5045285;28;20036;-84
2023/03/06 03:43:23;;;;;;;2.20;1.40;;;1.30;1.00;;;;;;5050521;28;20048;-85
2023/03/06 03:45:48;;;;;;;2.15;1.40;;;1.30;1.00;;;;;;5049029;28;20050;-84
2023/03/06 03:48:14;;;;;;;4.20;1.33;;;1.20;1.00;;;;;;5033304;28;20091;-84
2023/03/06 03:50:40;;;;;;;3.55;1.70;;;1.20;1.00;;;;;;5051328;28;20055;-85
2023/03/06 03:53:05;;;;;;;2.60;1.48;;;1.10;1.00;;;;;;5048207;28;20053;-85
2023/03/06 03:55:31;;;;;;;3.03;1.63;;;1.10;1.00;;;;;;5031812;28;20087;-86
2023/03/06 03:57:57;;;;;;;3.75;1.80;;;1.10;1.00;;;;;;5047293;28;20502;-85
2023/03/06 04:00:22;;;;;;;4.00;1.70;;;1.20;1.00;;;;;;5034335;28;20082;-85
2023/03/06 04:02:49;;;;;;;2.58;1.75;;;1.10;1.00;;;;;;5049076;28;20160;-85
2023/03/06 04:05:15;;;;;;;4.57;1.92;;;1.10;1.00;;;;;;5051314;28;20405;-84
2023/03/06 04:07:42;;;;;;;3.90;2.30;;;1.10;1.00;;;;;;5062524;28;20048;-85
2023/03/06 04:10:10;;;;;;;4.25;2.40;;;1.00;1.00;;;;;;5045837;28;20079;-84
2023/03/06 04:12:36;;;;;;;3.10;1.92;;;1.10;1.00;;;;;;5050442;28;20131;-85
2023/03/06 04:15:02;;;;;;;3.60;2.10;;;1.10;1.00;;;;;;5076650;28;20147;-85
2023/03/06 04:17:28;;;;;;;3.45;2.05;;;1.10;1.00;;;;;;5050391;28;20056;-85
2023/03/06 04:19:54;;;;;;;3.05;1.80;;;1.20;1.00;;;;;;5071955;28;20409;-85
2023/03/06 04:22:19;;;;;;;3.05;1.88;;;1.20;1.00;;;;;;5075044;28;20051;-85
2023/03/06 04:24:48;;;;;;;5.00;2.20;;;1.40;1.00;;;;;;5039755;28;20380;-85
2023/03/06 04:27:14;;;;;;;4.78;2.50;;;1.30;1.00;;;;;;5056730;28;20068;-85
2023/03/06 04:29:40;;;;;;;3.30;1.98;;;1.30;1.00;;;;;;5047017;28;20071;-85
2023/03/06 04:32:06;;;;;;;4.60;2.80;;;1.30;1.00;;;;;;5059137;28;20059;-85
2023/03/06 04:34:31;;;;;;;4.63;2.35;;;1.20;1.00;;;;;;5073090;28;20082;-85
2023/03/06 04:36:57;;;;;;;3.70;1.95;;;1.20;1.00;;;;;;5041206;28;20045;-85
2023/03/06 04:39:22;;;;;;;4.45;2.28;;;1.10;1.00;;;;;;5046051;28;20174;-86
2023/03/06 04:41:48;;;;;;;5.20;2.40;;;1.10;1.00;;;;;;5036893;28;20174;-87
2023/03/06 04:44:14;;;;;;;3.67;2.05;;;1.20;1.00;;;;;;5040357;28;20083;-86
2023/03/06 04:46:39;;;;;;;4.80;2.25;;;1.20;1.00;;;;;;5041412;28;20051;-87
2023/03/06 04:49:05;;;;;;;6.00;2.10;;;1.10;1.00;;;;;;5058760;28;20063;-87
2023/03/06 04:51:31;;;;;;;5.68;2.30;;;1.30;1.00;;;;;;5041494;28;20915;-87
2023/03/06 04:53:57;;;;;;;5.30;2.25;;;1.20;1.00;;;;;;5036134;28;20353;-86
2023/03/06 04:56:23;;;;;;;3.90;2.40;;;1.30;1.00;;;;;;5026693;28;20075;-87
2023/03/06 04:58:48;;;;;;;5.90;2.40;;;1.20;1.00;;;;;;5044484;28;20080;-87
2023/03/06 05:01:14;;;;;;;4.07;2.35;;;1.20;1.00;;;;;;5038719;28;20102;-85
2023/03/06 05:03:40;;;;;;;4.18;2.50;;;1.30;1.00;;;;;;5035341;28;20084;-86
2023/03/06 05:06:06;;;;;;;4.93;2.47;;;1.20;1.00;;;;;;5062890;28;20048;-85
2023/03/06 05:08:31;;;;;;;6.38;2.97;;;1.20;1.00;;;;;;5048968;28;20044;-86
2023/03/06 05:11:01;;;;;;;5.38;2.35;;;1.20;1.00;;;;;;5038740;28;20109;-85
2023/03/06 05:13:27;;;;;;;5.75;2.30;;;1.20;1.00;;;;;;5053867;28;20053;-85
2023/03/06 05:15:53;;;;;;;4.72;2.20;;;1.20;1.00;;;;;;5047509;28;20044;-87
2023/03/06 05:18:20;;;;;;;4.75;2.70;;;1.10;1.00;;;;;;5057354;28;20044;-86
2023/03/06 05:20:45;;;;;;;8.85;2.58;;;1.10;1.00;;;;;;5044021;28;20061;-86
2023/03/06 05:23:11;;;;;;;4.82;2.78;;;0.90;1.00;;;;;;5056885;28;20554;-86
2023/03/06 05:25:39;;;;;;;4.25;2.10;;;0.90;1.00;;;;;;5044150;28;20036;-86
2023/03/06 05:28:05;;;;;;;6.40;2.30;;;0.80;1.00;;;;;;5059957;28;20469;-86
2023/03/06 05:30:31;;;;;;;4.70;2.63;;;0.80;1.00;;;;;;5056361;28;20040;-86
2023/03/06 05:32:58;;;;;;;8.00;2.38;;;0.90;1.00;;;;;;5044045;28;20127;-84
2023/03/06 05:35:24;;;;;;;4.28;2.22;;;0.90;1.00;;;;;;5047721;28;20110;-85
2023/03/06 05:37:50;;;;;;;5.93;2.05;;;1.00;1.00;;;;;;5036867;28;20727;-84
2023/03/06 05:40:16;;;;;;;4.93;2.53;;;0.90;1.00;;;;;;5059433;28;20103;-86
2023/03/06 05:42:42;;;;;;;4.55;2.10;;;0.90;1.00;;;;;;5042742;28;20064;-85
2023/03/06 05:45:09;;;;;;;4.25;2.17;;;0.90;1.00;;;;;;5043426;28;20112;-86
2023/03/06 05:47:34;;;;;;;7.10;2.08;;;0.90;1.00;;;;;;5028338;28;20048;-86
2023/03/06 05:50:00;;;;;;;5.97;2.63;;;0.90;1.00;;;;;;5041233;28;20037;-87
2023/03/06 05:52:26;;;;;;;7.90;2.53;;;0.80;1.00;;;;;;5044622;28;20119;-86
2023/03/06 05:54:53;;;;;;;4.82;2.47;;;0.80;1.00;;;;;;5045760;28;20046;-87
2023/03/06 05:57:20;;;;;;;4.55;1.85;;;0.80;1.00;;;;;;5062584;28;20148;-86
2023/03/06 05:59:46;;;;;;;4.78;2.50;;;0.80;1.00;;;;;;5047746;28;20090;-86
2023/03/06 06:02:12;;;;;;;5.15;2.45;;;0.80;1.00;;;;;;5028316;28;20056;-87
2023/03/06 06:04:37;;;;;;;6.55;2.10;;;0.80;1.00;;;;;;5061851;28;20037;-86
2023/03/06 06:07:05;;;;;;;7.20;2.15;;;0.90;1.00;;;;;;5042852;28;20048;-87
2023/03/06 06:09:31;;;;;;;5.88;2.42;;;0.90;1.00;;;;;;5043685;28;20135;-85
2023/03/06 06:12:02;;;;;;;5.75;2.63;;;0.80;1.00;;;;;;5042028;28;20040;-89
2023/03/06 06:14:29;;;;;;;6.78;2.05;;;0.70;1.00;;;;;;5044830;28;20057;-89
2023/03/06 06:16:55;;;;;;;5.68;2.05;;;0.70;1.00;;;;;;5066402;28;20049;-82
2023/03/06 06:19:22;;;;;;;6.95;2.58;;;0.80;1.00;;;;;;5058594;28;20509;-82
2023/03/06 06:21:52;;;;;;;6.70;2.72;;;0.60;1.00;;;;;;5061562;28;20048;-82
2023/03/06 06:24:20;;;;;;;7.35;2.50;;;0.60;1.00;;;;;;5046416;28;20668;-83
2023/03/06 06:26:48;;;;;;;6.15;2.50;;;0.50;1.00;;;;;;5069129;28;20044;-82
2023/03/06 06:29:14;;;;;;;5.82;2.67;;;0.50;1.00;;;;;;5051839;28;20056;-82
2023/03/06 06:31:40;;;;;;;6.32;3.10;;;0.40;1.00;;;;;;5053296;28;20075;-81
2023/03/06 06:34:07;;;;;;;7.78;3.20;;;0.30;1.00;;;;;;5035560;28;20059;-82
2023/03/06 06:36:32;;;;;;;6.22;3.25;;;0.30;1.00;;;;;;5056937;28;20076;-82
2023/03/06 06:38:58;;;;;;;10.02;3.58;;;0.30;1.00;;;;;;5065379;28;20672;-82
2023/03/06 06:41:25;;;;;;;9.38;3.88;;;0.30;1.00;;;;;;5062209;28;20052;-82
2023/03/06 06:43:51;;;;;;;8.57;3.38;;;0.30;1.00;;;;;;5052007;28;20048;-82
2023/03/06 06:46:17;;;;;;;14.13;3.50;;;0.30;1.00;;;;;;5068499;28;20512;-82
2023/03/06 06:48:42;;;;;;;8.85;3.70;;;0.30;1.00;;;;;;5074534;28;20074;-81
2023/03/06 06:51:08;;;;;;;10.02;4.63;;;0.40;1.00;;;;;;5068960;28;20088;-82
2023/03/06 06:53:34;;;;;;;9.73;3.63;;;0.40;1.00;;;;;;5074790;28;20043;-83
2023/03/06 06:55:59;;;;;;;8.88;3.50;;;0.30;1.00;;;;;;5058906;28;20048;-82
2023/03/06 06:58:26;;;;;;;12.82;5.15;;;0.50;1.00;;;;;;5012485;28;20109;-82
2023/03/06 07:00:52;;;;;;;11.75;5.55;;;0.40;1.00;;;;;;5071761;28;20060;-82
2023/03/06 07:03:17;;;;;;;10.40;4.10;;;0.50;1.00;;;;;;5052379;28;20040;-83
2023/03/06 07:05:43;;;;;;;8.35;3.42;;;0.50;1.00;;;;;;5051853;28;20056;-82
2023/03/06 07:08:09;;;;;;;7.38;4.00;;;0.50;1.00;;;;;;5043216;28;20055;-82
2023/03/06 07:10:40;;;;;;;8.80;4.40;;;0.40;1.00;;;;;;5056898;28;20497;-82
2023/03/06 07:13:06;;;;;;;7.03;3.78;;;0.50;1.00;;;;;;5048622;28;20131;-82
2023/03/06 07:15:32;;;;;;;14.90;4.60;;;0.30;1.00;;;;;;5059518;28;20506;-83
2023/03/06 07:18:00;;;;;;;6.80;3.67;;;0.40;1.00;;;;;;5031835;28;20074;-83
2023/03/06 07:20:25;;;;;;;6.60;2.85;;;0.30;1.00;;;;;;5043976;28;20489;-82
2023/03/06 07:22:51;;;;;;;8.43;3.30;;;0.30;1.00;;;;;;5068386;28;20094;-83
2023/03/06 07:25:17;;;;;;;7.50;2.80;;;0.30;1.00;;;;;;5064691;28;20114;-83
2023/03/06 07:27:43;;;;;;;10.05;2.85;;;0.30;1.00;;;;;;5051646;28;20044;-83
2023/03/06 07:30:14;;;;;;;8.20;2.72;;;0.30;4.90;;;;;;5052205;28;20056;-83
2023/03/06 07:32:40;;;;;;;6.47;2.53;;;0.30;11.60;;;;;;5048833;28;20045;-83
2023/03/06 07:35:06;;;;;;;9.18;2.90;;;0.30;13.10;;;;;;5041501;28;20057;-82
2023/03/06 07:37:31;;;;;;;5.80;2.72;;;0.40;18.30;;;;;;5039174;28;20048;-83
2023/03/06 07:39:57;;;;;;;10.95;5.15;;;0.30;18.10;;;;;;5051499;28;20083;-83
2023/03/06 07:42:23;;;;;;;19.08;11.70;;;0.40;18.90;;;;;;5056165;28;20052;-83
2023/03/06 07:44:48;;;;;;;9.48;5.60;;;0.40;19.40;;;;;;5076355;28;20048;-83
2023/03/06 07:47:14;;;;;;;16.45;6.20;;;0.40;21.20;;;;;;5039958;28;20048;-83
2023/03/06 07:49:43;;;;;;;9.27;3.50;;;0.50;23.50;;;;;;5050844;28;20553;-83
2023/03/06 07:52:08;;;;;;;9.18;3.13;;;0.50;33.10;;;;;;5052131;28;20413;-83
2023/03/06 07:54:34;;;;;;;13.15;5.38;;;0.50;33.70;;;;;;5065198;28;20055;-83
2023/03/06 07:57:00;;;;;;;17.38;6.00;;;0.60;37.90;;;;;;5040666;28;20045;-82
2023/03/06 07:59:26;;;;;;;12.57;5.47;;;0.60;37.40;;;;;;5035654;28;20048;-83
2023/03/06 08:01:53;;;;;;;18.90;8.98;;;0.60;44.10;;;;;;5045975;28;20048;-83
2023/03/06 08:04:19;;;;;;;13.52;6.10;;;0.70;45.80;;;;;;5051880;28;20460;-83
2023/03/06 08:06:45;;;;;;;9.40;4.70;;;0.80;51.40;;;;;;5040605;28;20127;-82
2023/03/06 08:09:10;;;;;;;10.43;5.40;;;0.90;71.80;;;;;;5047923;28;20049;-83
2023/03/06 08:11:36;;;;;;;33.67;12.88;;;1.00;75.10;;;;;;5040338;28;20036;-82
2023/03/06 08:14:02;;;;;;;22.77;10.00;;;1.20;86.00;;;;;;5047477;28;20068;-82
2023/03/06 08:16:29;;;;;;;38.70;16.88;;;1.30;91.80;;;;;;5050409;28;20097;-82
2023/03/06 08:18:55;;;;;;;13.63;7.07;;;1.60;95.10;;;;;;5051348;28;20051;-82
2023/03/06 08:21:24;;;;;;;12.98;4.65;;;1.80;96.90;;;;;;5054944;28;20079;-83
2023/03/06 08:23:50;;;;;;;9.18;4.25;;;1.90;96.60;;;;;;5047788;28;20405;-82
2023/03/06 08:26:22;;;;;;;10.45;5.43;;;1.90;95.80;;;;;;5061303;28;20053;-82
2023/03/06 08:28:49;;;;;;;13.35;5.65;;;2.00;93.80;;;;;;5059896;28;20097;-82
2023/03/06 08:31:29;;;;;;;7.68;3.78;;;1.90;92.30;;;;;;5047878;28;20045;-82
2023/03/06 08:33:56;;;;;;;14.73;6.63;;;1.80;89.50;;;;;;5049073;28;20049;-82
2023/03/06 08:36:22;;;;;;;13.70;7.20;;;1.80;85.70;;;;;;5051536;28;20125;-82
2023/03/06 08:38:48;;;;;;;8.88;4.68;;;1.70;82.60;;;;;;5030566;28;20047;-81
2023/03/06 08:41:14;;;;;;;9.20;3.90;;;1.70;81.80;;;;;;5042968;28;20081;-82
2023/03/06 08:43:40;;;;;;;8.93;2.40;;;1.70;81.60;;;;;;5065869;28;20133;-82
2023/03/06 08:46:06;;;;;;;10.93;4.03;;;2.00;85.60;;;;;;5068599;28;20389;-82
2023/03/06 08:48:32;;;;;;;11.25;4.47;;;1.90;86.10;;;;;;5021497;28;20454;-82
2023/03/06 08:50:57;;;;;;;7.47;3.92;;;2.00;87.60;;;;;;5055012;28;20044;-82
2023/03/06 08:53:24;;;;;;;6.82;2.72;;;2.20;90.70;;;;;;5062418;28;20048;-82
2023/03/06 08:55:50;;;;;;;4.32;2.75;;;2.20;91.60;;;;;;5046164;28;20048;-82
2023/03/06 08:58:16;;;;;;;3.13;1.90;;;2.30;93.70;;;;;;5051193;28;20120;-82
2023/03/06 09:00:42;;;;;;;4.82;2.40;;;2.40;93.50;;;;;;5052133;28;20187;-82
2023/03/06 09:03:07;;;;;;;6.18;2.25;;;2.40;92.10;;;;;;5065339;28;20116;-82
2023/03/06 09:05:33;;;;;;;4.93;2.50;;;2.40;90.00;;;;;;5054156;28;20161;-83
2023/03/06 09:07:59;;;;;;;2.13;1.42;;;2.40;88.10;;;;;;5057955;28;20205;-82
2023/03/06 09:10:25;;;;;;;2.55;1.88;;;2.50;82.60;;;;;;5055080;28;20056;-82
2023/03/06 09:12:51;;;;;;;2.90;1.90;;;2.60;77.50;;;;;;5069119;28;21197;-82
2023/03/06 09:15:19;;;;;;;5.45;2.20;;;2.60;78.60;;;;;;5070473;28;20411;-82
2023/03/06 09:17:46;;;;;;;4.63;2.40;;;2.70;76.20;;;;;;5040913;28;20531;-81
2023/03/06 09:20:13;;;;;;;4.60;2.28;;;2.80;71.30;;;;;;5057994;28;20556;-82
2023/03/06 09:22:41;;;;;;;3.75;2.53;;;2.90;69.90;;;;;;5063211;28;20572;-81
2023/03/06 09:25:08;;;;;;;2.92;1.90;;;3.00;69.70;;;;;;5041864;28;20052;-82
2023/03/06 09:27:34;;;;;;;3.42;1.65;;;3.10;66.40;;;;;;5039300;28;20044;-81
2023/03/06 09:30:00;;;;;;;4.40;1.77;;;3.30;66.50;;;;;;5034302;28;20053;-82
2023/03/06 09:32:25;;;;;;;5.72;1.65;;;3.50;64.50;;;;;;5068809;28;20041;-81
2023/03/06 09:34:51;;;;;;;4.15;1.30;;;3.60;62.20;;;;;;5053617;28;20044;-81
2023/03/06 09:37:17;;;;;;;3.75;1.23;;;3.80;46.60;;;;;;5034301;28;20077;-82
2023/03/06 09:39:43;;;;;;;3.80;1.17;;;3.90;29.20;;;;;;5062637;28;20051;-81
2023/03/06 09:42:22;;;;;;;2.00;0.90;;;4.00;13.10;;;;;;5033636;28;20469;-82
2023/03/06 09:44:55;;;;;;;2.28;1.30;;;3.90;1.00;;;;;;5046533;28;20389;-82
2023/03/06 09:47:32;;;;;;;4.43;1.10;;;4.00;1.00;;;;;;5059658;28;20137;-82
2023/03/06 09:50:23;;;;;;;3.42;1.05;;;3.90;1.00;;;;;;5052774;28;20174;-82
2023/03/06 09:53:28;;;;;;;4.05;1.50;;;3.90;1.00;;;;;;5052192;28;20099;-82
2023/03/06 09:56:04;;;;;;;3.47;1.83;;;3.90;1.00;;;;;;5051617;28;20052;-82
2023/03/06 09:58:36;;;;;;;5.82;1.30;;;3.90;1.00;;;;;;5050096;28;20776;-82
2023/03/06 10:01:22;;;;;;;2.95;1.20;;;4.00;1.00;;;;;;5059185;28;20051;-82
2023/03/06 10:03:51;;;;;;;;;;;3.90;1.00;;;;;;5062061;28;20072;-81
2023/03/06 10:06:29;;;;;;;5.22;1.77;;;3.80;1.00;;;;;;5064112;28;20294;-81
2023/03/06 10:09:21;;;;;;;4.30;1.38;;;3.70;1.00;;;;;;5049880;28;20429;-81
2023/03/06 10:11:58;;;;;;;4.97;1.00;;;3.80;1.00;;;;;;5069535;28;20045;-81
2023/03/06 10:14:44;;;;;;;3.17;0.98;;;3.80;1.00;;;;;;5067196;28;20052;-81
2023/03/06 10:17:20;;;;;;;4.03;1.00;;;4.00;1.00;;;;;;5045208;28;20060;-81
2023/03/06 10:19:46;;;;;;;5.07;0.80;;;3.90;1.00;;;;;;5068863;28;20135;-82
2023/03/06 10:22:21;;;;;;;1.60;0.73;;;3.90;1.00;;;;;;5056532;28;20139;-81
2023/03/06 10:24:55;;;;;;;3.08;1.00;;;3.80;99.90;;;;;;5069637;28;20052;-82
2023/03/06 10:28:03;;;;;;;2.60;0.80;;;3.90;99.90;;;;;;5055986;28;20037;-82
2023/03/06 10:30:34;;;;;;;2.75;0.63;;;4.10;99.90;;;;;;5027544;28;20561;-81
2023/03/06 10:33:37;;;;;;;3.30;1.27;;;4.20;1.00;;;;;;5059483;28;20116;-82
2023/03/06 10:36:03;;;;;;;1.52;0.50;;;4.40;99.90;;;;;;5033555;28;20050;-80
2023/03/06 10:38:29;;;;;;;3.42;0.47;;;4.50;59.40;;;;;;5062686;28;20056;-82
2023/03/06 10:41:10;;;;;;;4.50;0.65;;;4.40;99.90;;;;;;5040731;28;20055;-82
2023/03/06 10:43:37;;;;;;;3.08;1.02;;;4.40;99.90;;;;;;5065973;28;20158;-82
2023/03/06 10:46:04;;;;;;;1.10;0.77;;;4.40;99.90;;;;;;5050261;28;20445;-82
2023/03/06 10:48:34;;;;;;;3.97;0.57;;;4.30;99.90;;;;;;5036289;28;20044;-82
2023/03/06 10:51:19;;;;;;;3.58;0.80;;;4.30;99.90;;;;;;5041998;28;20044;-82
2023/03/06 10:53:58;;;;;;;2.08;0.60;;;4.40;99.90;;;;;;5051356;28;20056;-83
2023/03/06 10:56:33;;;;;;;2.42;0.50;;;4.50;1.00;;;;;;5052581;28;20457;-83
2023/03/06 10:59:12;;;;;;;2.00;0.50;;;4.70;99.90;;;;;;5056466;28;20052;-83
2023/03/06 11:01:40;;;;;;;2.15;0.45;;;5.10;1.00;;;;;;5064164;28;20097;-83
2023/03/06 11:04:21;;;;;;;2.72;0.57;;;5.20;1.00;;;;;;5057395;28;20048;-83
2023/03/06 11:06:47;;;;;;;2.38;1.20;;;5.50;1.00;;;;;;5043130;28;20052;-83
2023/03/06 11:09:24;;;;;;;4.20;1.50;;;5.90;1.00;;;;;;5051310;28;20036;-83
2023/03/06 11:11:50;;;;;;;2.05;0.55;;;6.30;99.90;;;;;;5071845;28;20040;-84
2023/03/06 11:14:19;;;;;;;1.45;0.50;;;6.50;1.00;;;;;;5051758;28;20049;-83
2023/03/06 11:16:54;;;;;;;2.67;0.80;;;6.60;99.90;;;;;;5051693;28;20063;-83
2023/03/06 11:19:31;;;;;;;2.00;0.40;;;6.50;99.90;;;;;;5048941;28;20080;-83
2023/03/06 11:22:15;;;;;;;4.18;1.05;;;6.50;99.90;;;;;;5060301;28;20036;-84
2023/03/06 11:24:47;;;;;;;4.00;0.68;;;6.80;99.90;;;;;;5036677;28;20075;-84
2023/03/06 11:27:33;;;;;;;1.08;0.30;;;6.80;99.90;;;;;;5045987;28;20045;-84
2023/03/06 11:30:04;;;;;;;4.45;0.75;;;6.60;61.00;;;;;;5048858;28;20049;-84
2023/03/06 11:32:40;;;;;;;1.45;0.40;;;6.30;99.90;;;;;;5062370;28;20045;-83
2023/03/06 11:35:20;;;;;;;3.28;0.43;;;6.10;99.90;;;;;;5047624;28;20048;-83
2023/03/06 11:37:53;;;;;;;12.98;3.30;;;5.80;99.90;;;;;;5048301;28;20084;-83
2023/03/06 11:40:35;;;;;;;2.15;0.50;;;5.60;99.90;;;;;;5047481;28;20139;-83
2023/03/06 11:43:25;;;;;;;9.80;1.60;;;5.40;99.90;;;;;;5044917;28;20401;-84
2023/03/06 11:46:12;;;;;;;5.95;1.20;;;5.20;99.90;;;;;;5058604;28;20060;-83
2023/03/06 11:48:45;;;;;;;4.32;0.90;;;4.90;99.90;;;;;;5038221;28;20393;-83
2023/03/06 11:51:17;;;;;;;4.15;1.35;;;4.80;99.90;;;;;;5066923;28;20178;-83
2023/03/06 11:53:43;;;;;;;1.63;0.85;;;4.70;99.90;;;;;;5066197;28;20128;-84
2023/03/06 11:56:18;;;;;;;2.60;0.47;;;4.80;99.90;;;;;;5049521;28;20135;-84
2023/03/06 11:59:02;;;;;;;3.35;0.73;;;4.80;99.90;;;;;;5052099;28;20052;-83
2023/03/06 12:01:42;;;;;;;2.85;0.80;;;4.80;99.90;;;;;;5047985;28;20082;-83
2023/03/06 12:04:34;;;;;;;4.13;0.85;;;4.80;99.90;;;;;;5042779;28;20779;-83
2023/03/06 12:07:24;;;;;;;3.05;0.80;;;4.90;99.90;;;;;;5056141;28;20094;-84
2023/03/06 12:10:16;;;;;;;1.52;0.63;;;5.50;99.90;;;;;;5049590;28;20044;-83
2023/03/06 12:12:57;;;;;;;3.05;1.60;;;5.90;4.80;;;;;;5066662;28;20121;-83
2023/03/06 12:15:35;;;;;;;5.70;0.63;;;6.30;99.90;;;;;;5040312;28;20044;-83
2023/03/06 12:18:22;;;;;;;1.10;0.40;;;6.50;99.90;;;;;;5043853;28;20049;-84
2023/03/06 12:21:28;;;;;;;3.30;0.55;;;6.40;1.00;;;;;;5062670;28;20123;-84
2023/03/06 12:23:59;;;;;;;1.08;0.40;;;6.30;9.40;;;;;;5050808;28;20048;-84
2023/03/06 12:26:43;;;;;;;3.58;0.75;;;6.30;47.10;;;;;;5047761;28;20045;-84
2023/03/06 12:29:27;;;;;;;3.75;1.38;;;6.20;35.80;;;;;;5069985;28;20056;-84
2023/03/06 12:32:22;;;;;;;1.48;0.30;;;6.20;67.80;;;;;;5057268;28;20098;-84
2023/03/06 12:35:40;;;;;;;2.53;0.60;;;6.20;94.10;;;;;;5047719;28;20048;-84
2023/03/06 12:38:27;;;;;;;2.80;0.50;;;6.20;14.80;;;;;;5049227;28;20197;-84
2023/03/06 12:41:31;;;;;;;5.25;0.73;;;6.50;75.00;;;;;;5056860;28;20053;-84
2023/03/06 12:44:05;;;;;;;1.38;0.30;;;6.80;1.00;;;;;;5030316;28;20055;-84
2023/03/06 12:46:38;;;;;;;0.40;0.30;;;7.10;1.00;;;;;;5059817;28;20056;-83
2023/03/06 12:49:24;;;;;;;1.33;0.60;;;7.40;20.40;;;;;;5050565;28;20048;-84
2023/03/06 12:51:52;;;;;;;3.20;0.45;;;7.90;1.00;;;;;;5056248;28;20132;-84
2023/03/06 12:54:23;;;;;;;1.85;0.50;;;8.10;1.00;;;;;;5056793;28;20041;-84
2023/03/06 12:56:50;;;;;;;1.85;0.52;;;8.20;1.00;;;;;;5038274;28;20044;-84
2023/03/06 12:59:48;;;;;;;1.40;0.30;;;8.20;1.00;;;;;;5066034;28;20628;-84
2023/03/06 13:02:40;;;;;;;1.73;0.60;;;8.20;1.00;;;;;;5067032;28;20074;-83
2023/03/06 13:05:21;;;;;;;3.42;1.23;;;8.30;1.00;;;;;;5056817;28;20186;-83
2023/03/06 13:07:58;;;;;;;1.05;0.60;;;8.40;1.00;;;;;;5033174;28;20132;-83
2023/03/06 13:10:32;;;;;;;8.18;2.75;;;8.60;1.00;;;;;;5043520;28;20134;-84
2023/03/06 13:13:01;;;;;;;4.80;2.00;;;8.70;1.00;;;;;;5064841;28;20663;-84
2023/03/06 13:15:37;;;;;;;6.05;3.00;;;8.70;1.00;;;;;;5066326;28;20811;-84
2023/03/06 13:18:23;;;;;;;2.08;1.10;;;8.80;1.00;;;;;;5066865;28;20045;-83